Manukau, New Zealand
Current Conditions -  °F | °C
As of 2:30 PM on Sunday 21 Dec 2014 (Local Time) from NZAA Reporting Station
Clear Clear  
Wind Chill: 72°   Ceiling: Unl
Heat Index: 72°   Visibility: 6mi
Dew Point: 64°   Wind: 9mph
Humidity: 78%   Direction: 220°SW
Pressure: 29.94"   Gusts: NA
Location:  36.93°S, 174.93°E
Report Text: NZAA 210130Z AUTO 22008KT 170V240 9999 NCD 22/18 Q1014 NOSIG
Loading
Personal Weather Stations






























Interactive Weather Map New forecast layout! Learn more

10-Day Weather Forecast

Advertisements
Track Severe Weather on mobile